Time;durP1;ratioP1;P1;durP2;ratioP2;P2;SDS_P1;SDS_P2;PMS_P1;PMS_P2;Temp;Humidity;BMP_temperature;BMP_pressure;BME280_temperature;BME280_humidity;BME280_pressure;Samples;Min_cycle;Max_cycle;Signal;HPM_P1;HPM_P2
2023/04/04 00:01:42;;;;;;;5.18;2.30;;;;;2.10;99420.00;;;;5015140;28;20104;-60
2023/04/04 00:04:08;;;;;;;4.20;2.10;;;;;2.10;99419.00;;;;4997824;28;20088;-60
2023/04/04 00:06:35;;;;;;;4.72;2.40;;;;;2.10;99424.00;;;;5015229;28;20049;-59
2023/04/04 00:09:02;;;;;;;3.75;2.72;;;;;2.10;99422.00;;;;5014961;28;20042;-59
2023/04/04 00:11:28;;;;;;;5.97;2.30;;;;;2.00;99419.00;;;;5015112;28;20053;-60
2023/04/04 00:13:55;;;;;;;5.68;2.55;;;;;2.00;99416.00;;;;5015281;28;20435;-59
2023/04/04 00:16:22;;;;;;;7.18;2.95;;;;;2.00;99419.00;;;;5015398;28;20087;-60
2023/04/04 00:18:49;;;;;;;6.75;2.60;;;;;2.00;99420.00;;;;5015005;28;20396;-60
2023/04/04 00:21:15;;;;;;;5.72;2.63;;;;;2.10;99419.00;;;;5013942;28;20045;-58
2023/04/04 00:23:42;;;;;;;4.93;2.65;;;;;2.10;99411.00;;;;5015182;28;20084;-58
2023/04/04 00:26:08;;;;;;;5.47;2.92;;;;;2.10;99400.00;;;;5015378;28;20037;-58
2023/04/04 00:28:35;;;;;;;4.22;2.50;;;;;2.10;99403.00;;;;4997481;28;20057;-60
2023/04/04 00:31:02;;;;;;;5.07;2.20;;;;;2.00;99407.00;;;;5013980;28;20077;-59
2023/04/04 00:33:29;;;;;;;4.10;2.30;;;;;1.90;99406.00;;;;4998014;28;20049;-59
2023/04/04 00:35:55;;;;;;;5.63;2.75;;;;;2.00;99395.00;;;;5019121;28;20057;-61
2023/04/04 00:38:22;;;;;;;3.13;2.30;;;;;2.00;99403.00;;;;5017442;28;20149;-63
2023/04/04 00:40:50;;;;;;;4.65;2.40;;;;;2.00;99407.00;;;;5015186;28;20454;-56
2023/04/04 00:43:17;;;;;;;5.07;3.13;;;;;1.90;99411.00;;;;5015177;28;20042;-56
2023/04/04 00:45:45;;;;;;;6.07;2.63;;;;;1.90;99396.00;;;;5014667;28;20100;-59
2023/04/04 00:48:12;;;;;;;5.65;2.90;;;;;1.80;99390.00;;;;5015676;28;20443;-59
2023/04/04 00:50:39;;;;;;;5.43;2.38;;;;;1.80;99387.00;;;;5015022;28;20073;-57
2023/04/04 00:53:06;;;;;;;6.15;2.85;;;;;1.80;99387.00;;;;4998968;28;20050;-62
2023/04/04 00:55:39;;;;;;;4.68;2.30;;;;;1.80;99384.00;;;;5021007;28;20046;-63
2023/04/04 00:58:06;;;;;;;12.32;3.67;;;;;1.80;99387.00;;;;5003758;28;20038;-62
2023/04/04 01:00:34;;;;;;;4.60;2.58;;;;;1.80;99386.00;;;;5002104;28;20046;-62
2023/04/04 01:03:02;;;;;;;7.32;2.83;;;;;1.70;99387.00;;;;5019727;28;20061;-60
2023/04/04 01:05:30;;;;;;;5.20;2.30;;;;;1.70;99382.00;;;;5017106;28;20490;-60
2023/04/04 01:07:57;;;;;;;4.68;2.42;;;;;1.60;99373.00;;;;5017871;28;20168;-60
2023/04/04 01:10:24;;;;;;;4.93;2.60;;;;;1.60;99378.00;;;;4983944;28;20568;-59
2023/04/04 01:17:33;;;;;;;4.93;3.05;;;;;1.50;99376.00;;;;4968924;28;20090;-59
2023/04/04 01:20:05;;;;;;;3.45;2.40;;;;;1.50;99366.00;;;;5007244;28;20092;-59
2023/04/04 01:22:44;;;;;;;4.35;2.67;;;;;1.60;99369.00;;;;5006402;28;20073;-59
2023/04/04 01:25:13;;;;;;;4.75;2.55;;;;;1.60;99370.00;;;;5023170;28;20041;-60
2023/04/04 01:27:43;;;;;;;6.95;2.90;;;;;1.60;99372.00;;;;5005353;28;20077;-59
2023/04/04 01:30:14;;;;;;;7.18;2.80;;;;;1.60;99359.00;;;;5005378;28;20141;-59
2023/04/04 01:32:51;;;;;;;7.18;3.10;;;;;1.60;99365.00;;;;5021773;28;20050;-59
2023/04/04 01:35:43;;;;;;;4.65;2.70;;;;;1.60;99369.00;;;;5001533;28;20065;-57
2023/04/04 01:38:19;;;;;;;5.55;2.90;;;;;1.60;99364.00;;;;5000410;28;20042;-56
2023/04/04 01:40:51;;;;;;;4.13;2.58;;;;;1.60;99361.00;;;;5018057;28;20046;-57
2023/04/04 01:43:20;;;;;;;6.00;2.78;;;;;1.50;99359.00;;;;5003272;28;20045;-61
2023/04/04 01:45:48;;;;;;;9.00;3.45;;;;;1.60;99361.00;;;;5004013;28;20046;-59
2023/04/04 01:48:15;;;;;;;5.35;2.40;;;;;1.60;99365.00;;;;5020971;28;20046;-60
2023/04/04 01:50:46;;;;;;;4.85;3.15;;;;;1.50;99354.00;;;;5020161;28;20072;-61
2023/04/04 01:53:13;;;;;;;6.25;2.80;;;;;1.50;99357.00;;;;5003632;28;20092;-59
2023/04/04 01:55:40;;;;;;;3.97;3.15;;;;;1.50;99349.00;;;;5021071;28;20053;-59
2023/04/04 01:58:07;;;;;;;4.22;2.78;;;;;1.50;99347.00;;;;5003941;28;20069;-59
2023/04/04 02:00:34;;;;;;;6.10;3.40;;;;;1.50;99350.00;;;;5023019;28;20037;-59
2023/04/04 02:03:02;;;;;;;2.92;2.47;;;;;1.50;99352.00;;;;5004185;28;20140;-60
2023/04/04 02:05:31;;;;;;;7.30;3.38;;;;;1.50;99347.00;;;;5021290;28;20075;-61
2023/04/04 02:07:57;;;;;;;4.03;2.80;;;;;1.40;99349.00;;;;5001937;28;20042;-59
2023/04/04 02:10:32;;;;;;;4.07;2.90;;;;;1.40;99351.00;;;;5003790;28;20529;-60
2023/04/04 02:12:59;;;;;;;8.10;4.65;;;;;1.40;99354.00;;;;5002396;28;20046;-60
2023/04/04 02:15:28;;;;;;;8.18;3.30;;;;;1.30;99356.00;;;;5019586;28;20042;-62
2023/04/04 02:17:55;;;;;;;6.03;3.05;;;;;1.20;99348.00;;;;5003513;28;20518;-61
2023/04/04 02:20:22;;;;;;;6.78;3.40;;;;;1.20;99350.00;;;;5006250;28;20065;-61
2023/04/04 02:22:51;;;;;;;13.65;4.88;;;;;1.20;99349.00;;;;5003326;28;20053;-58
2023/04/04 02:25:19;;;;;;;4.43;2.60;;;;;1.30;99352.00;;;;5000394;28;20053;-56
2023/04/04 02:27:46;;;;;;;5.60;2.90;;;;;1.30;99349.00;;;;5001431;28;20046;-57
2023/04/04 02:30:13;;;;;;;4.85;2.83;;;;;1.20;99354.00;;;;5020812;28;20061;-61
2023/04/04 02:32:40;;;;;;;4.97;2.75;;;;;1.10;99349.00;;;;5021265;28;20076;-57
2023/04/04 02:35:07;;;;;;;5.43;3.13;;;;;1.20;99345.00;;;;5004071;28;20046;-57
2023/04/04 02:37:35;;;;;;;8.45;3.90;;;;;1.10;99346.00;;;;5019136;28;20042;-57
2023/04/04 02:40:07;;;;;;;7.40;2.90;;;;;1.10;99355.00;;;;5003073;28;20052;-58
2023/04/04 02:42:41;;;;;;;4.55;2.15;;;;;1.00;99351.00;;;;5020245;28;20038;-61
2023/04/04 02:45:08;;;;;;;5.65;2.90;;;;;1.00;99351.00;;;;5004442;28;20415;-57
2023/04/04 02:47:36;;;;;;;5.35;3.30;;;;;1.00;99346.00;;;;5003196;28;20068;-58
2023/04/04 02:50:04;;;;;;;5.25;2.58;;;;;1.00;99350.00;;;;5002448;28;20069;-59
2023/04/04 02:52:31;;;;;;;6.45;3.20;;;;;1.00;99349.00;;;;5003846;28;20042;-57
2023/04/04 02:55:05;;;;;;;3.65;2.55;;;;;1.00;99347.00;;;;5003632;28;20049;-58
2023/04/04 02:57:36;;;;;;;6.60;3.17;;;;;1.00;99347.00;;;;5000978;28;20458;-57
2023/04/04 03:00:03;;;;;;;3.40;3.10;;;;;0.90;99338.00;;;;5017104;28;20053;-56
2023/04/04 03:02:30;;;;;;;5.90;3.08;;;;;0.90;99343.00;;;;5002450;28;20054;-58
2023/04/04 03:04:56;;;;;;;7.72;3.25;;;;;0.90;99350.00;;;;5021087;28;20079;-57
2023/04/04 03:07:23;;;;;;;4.32;3.13;;;;;0.90;99341.00;;;;5018827;28;20048;-58
2023/04/04 03:09:51;;;;;;;7.68;3.05;;;;;0.90;99343.00;;;;5017268;28;20085;-59
2023/04/04 03:12:21;;;;;;;6.10;2.80;;;;;0.90;99350.00;;;;4999999;28;20048;-57
2023/04/04 03:14:49;;;;;;;5.82;3.28;;;;;0.80;99352.00;;;;5015977;28;20054;-57
2023/04/04 03:17:17;;;;;;;5.30;3.17;;;;;0.90;99344.00;;;;4999916;28;20048;-60
2023/04/04 03:19:45;;;;;;;5.22;3.22;;;;;1.00;99354.00;;;;5000258;28;20056;-58
2023/04/04 03:22:11;;;;;;;4.70;3.03;;;;;0.90;99350.00;;;;4996149;28;20054;-57
2023/04/04 03:24:38;;;;;;;4.30;2.88;;;;;0.90;99353.00;;;;5011094;28;20430;-59
2023/04/04 03:27:05;;;;;;;4.07;2.97;;;;;0.80;99350.00;;;;4994747;28;20049;-57
2023/04/04 03:29:32;;;;;;;6.47;3.50;;;;;0.90;99350.00;;;;5011929;28;20437;-61
2023/04/04 03:31:59;;;;;;;10.52;6.10;;;;;0.90;99344.00;;;;4994781;28;20077;-58
2023/04/04 03:34:26;;;;;;;4.57;3.65;;;;;0.80;99343.00;;;;4994420;28;20159;-56
2023/04/04 03:36:53;;;;;;;7.22;3.15;;;;;0.90;99348.00;;;;5010885;28;20105;-57
2023/04/04 03:39:20;;;;;;;8.75;3.33;;;;;0.80;99346.00;;;;4994393;28;20108;-56
2023/04/04 03:41:47;;;;;;;3.83;3.00;;;;;0.90;99345.00;;;;4994442;28;20088;-59
2023/04/04 03:44:13;;;;;;;5.10;3.63;;;;;0.90;99347.00;;;;5012049;28;20044;-59
2023/04/04 03:46:40;;;;;;;6.72;3.20;;;;;0.90;99344.00;;;;5012173;28;20076;-58
2023/04/04 03:49:10;;;;;;;3.95;3.13;;;;;0.80;99343.00;;;;4994172;28;20519;-58
2023/04/04 03:51:37;;;;;;;5.32;3.28;;;;;0.70;99345.00;;;;5010667;28;20054;-58
2023/04/04 03:54:04;;;;;;;4.72;3.80;;;;;0.70;99338.00;;;;4994449;28;20046;-57
2023/04/04 03:56:31;;;;;;;3.92;3.40;;;;;0.70;99339.00;;;;5011854;28;20046;-57
2023/04/04 03:59:02;;;;;;;3.88;3.17;;;;;0.80;99335.00;;;;4993801;28;20060;-59
2023/04/04 04:01:28;;;;;;;6.57;3.90;;;;;0.90;99336.00;;;;4993923;28;20046;-58
2023/04/04 04:03:55;;;;;;;6.07;3.65;;;;;0.90;99326.00;;;;4994288;28;20434;-59
2023/04/04 04:06:22;;;;;;;7.28;3.25;;;;;0.90;99335.00;;;;5013773;28;20081;-58
2023/04/04 04:08:48;;;;;;;8.10;3.60;;;;;0.90;99342.00;;;;4997513;28;20417;-58
2023/04/04 04:11:15;;;;;;;5.10;2.70;;;;;0.70;99332.00;;;;5015253;28;20038;-57
2023/04/04 04:13:41;;;;;;;6.43;3.42;;;;;0.60;99322.00;;;;4997588;28;20053;-60
2023/04/04 04:16:08;;;;;;;3.25;2.95;;;;;0.60;99323.00;;;;5015340;28;20491;-58
2023/04/04 04:18:35;;;;;;;5.40;3.53;;;;;0.60;99319.00;;;;5014809;28;20037;-58
2023/04/04 04:21:04;;;;;;;6.07;3.05;;;;;0.70;99328.00;;;;4997340;28;20463;-59
2023/04/04 04:23:32;;;;;;;11.43;3.80;;;;;0.70;99320.00;;;;4997425;28;20074;-58
2023/04/04 04:25:58;;;;;;;6.45;3.38;;;;;0.60;99337.00;;;;4997322;28;20050;-58
2023/04/04 04:28:26;;;;;;;4.30;3.08;;;;;0.70;99330.00;;;;4997177;28;20498;-58
2023/04/04 04:31:06;;;;;;;5.45;3.10;;;;;0.60;99333.00;;;;4982120;28;20145;-61
2023/04/04 04:33:40;;;;;;;7.20;4.38;;;;;0.60;99324.00;;;;4997725;28;20049;-58
2023/04/04 04:36:06;;;;;;;4.10;3.55;;;;;0.50;99322.00;;;;5014959;28;20033;-59
2023/04/04 04:38:52;;;;;;;6.03;3.50;;;;;0.50;99319.00;;;;4997002;28;20069;-61
2023/04/04 04:41:19;;;;;;;6.68;3.95;;;;;0.60;99324.00;;;;4997072;28;20042;-58
2023/04/04 04:43:49;;;;;;;4.88;3.05;;;;;0.50;99324.00;;;;4997046;28;20042;-60
2023/04/04 04:46:15;;;;;;;4.07;3.42;;;;;0.50;99326.00;;;;5014408;28;20044;-58
2023/04/04 04:48:42;;;;;;;7.65;3.92;;;;;0.60;99320.00;;;;4996627;28;20042;-57
2023/04/04 04:51:12;;;;;;;7.30;3.70;;;;;0.70;99329.00;;;;4996793;28;20534;-57
2023/04/04 04:53:44;;;;;;;5.95;3.63;;;;;0.70;99320.00;;;;4996879;28;20053;-56
2023/04/04 04:56:11;;;;;;;7.45;3.38;;;;;0.60;99329.00;;;;4996646;28;20069;-57
2023/04/04 04:58:41;;;;;;;8.63;3.55;;;;;0.60;99332.00;;;;4996420;28;20042;-57
2023/04/04 05:01:09;;;;;;;6.50;3.47;;;;;0.50;99325.00;;;;4996780;28;20112;-56
2023/04/04 05:03:38;;;;;;;7.25;3.40;;;;;0.50;99320.00;;;;4996677;28;20511;-57
2023/04/04 05:06:08;;;;;;;3.30;3.00;;;;;0.50;99322.00;;;;5012897;28;20140;-57
2023/04/04 05:08:36;;;;;;;8.00;3.85;;;;;0.40;99312.00;;;;5012708;28;20133;-57
2023/04/04 05:11:18;;;;;;;3.70;3.30;;;;;0.40;99318.00;;;;4996514;28;20042;-57
2023/04/04 05:13:45;;;;;;;3.88;3.28;;;;;0.50;99319.00;;;;4996855;28;20564;-59
2023/04/04 05:16:12;;;;;;;4.85;3.70;;;;;0.50;99330.00;;;;4996029;28;20053;-56
2023/04/04 05:18:42;;;;;;;6.43;3.95;;;;;0.50;99322.00;;;;4996239;28;20045;-55
2023/04/04 05:21:10;;;;;;;6.35;3.45;;;;;0.50;99320.00;;;;4996397;28;20165;-58
2023/04/04 05:23:37;;;;;;;4.90;3.70;;;;;0.60;99321.00;;;;4996986;28;20056;-57
2023/04/04 05:26:05;;;;;;;6.57;3.80;;;;;0.60;99333.00;;;;4996919;28;20075;-57
2023/04/04 05:28:35;;;;;;;6.47;3.70;;;;;0.60;99329.00;;;;4996263;28;20530;-57
2023/04/04 05:31:04;;;;;;;8.07;3.50;;;;;0.70;99330.00;;;;4996212;28;20050;-57
2023/04/04 05:33:33;;;;;;;6.82;3.65;;;;;0.70;99330.00;;;;5012334;28;20050;-57
2023/04/04 05:36:11;;;;;;;6.65;3.47;;;;;0.80;99328.00;;;;4996045;28;20056;-59
2023/04/04 05:38:44;;;;;;;3.85;3.40;;;;;0.90;99332.00;;;;4995831;28;20418;-62
2023/04/04 05:41:11;;;;;;;6.82;3.75;;;;;0.80;99326.00;;;;4995800;28;20108;-57
2023/04/04 05:43:38;;;;;;;7.45;3.38;;;;;0.90;99335.00;;;;4995911;28;20084;-57
2023/04/04 05:46:12;;;;;;;5.60;3.95;;;;;0.80;99333.00;;;;4995858;28;20049;-61
2023/04/04 05:48:44;;;;;;;5.60;3.85;;;;;0.80;99337.00;;;;4995612;28;20041;-58
2023/04/04 05:51:12;;;;;;;12.43;6.95;;;;;0.90;99334.00;;;;5012026;28;20173;-57
2023/04/04 05:53:46;;;;;;;9.85;5.30;;;;;1.10;99343.00;;;;4995915;28;20060;-57
2023/04/04 05:56:17;;;;;;;4.53;3.47;;;;;1.10;99341.00;;;;4995602;28;20479;-58
2023/04/04 05:58:45;;;;;;;4.35;3.45;;;;;1.10;99335.00;;;;5013022;28;20050;-59
2023/04/04 06:01:14;;;;;;;4.10;3.45;;;;;1.20;99344.00;;;;5011865;28;20079;-59
2023/04/04 06:03:42;;;;;;;10.30;3.78;;;;;1.30;99339.00;;;;4995565;28;20096;-57
2023/04/04 06:06:12;;;;;;;6.13;3.67;;;;;1.40;99341.00;;;;5011864;28;20049;-57
2023/04/04 06:08:38;;;;;;;5.22;3.75;;;;;1.50;99334.00;;;;4995386;28;20066;-57
2023/04/04 06:11:20;;;;;;;8.57;3.30;;;;;1.60;99343.00;;;;4995482;28;20361;-58
2023/04/04 06:13:47;;;;;;;5.68;3.45;;;;;1.60;99340.00;;;;4995478;28;20056;-58
2023/04/04 06:16:16;;;;;;;7.13;4.55;;;;;1.70;99337.00;;;;4995706;28;20050;-57
2023/04/04 06:18:42;;;;;;;10.35;7.18;;;;;1.90;99337.00;;;;4996477;28;20046;-62
2023/04/04 06:21:09;;;;;;;4.80;3.95;;;;;2.00;99344.00;;;;5013499;28;20061;-60
2023/04/04 06:23:39;;;;;;;5.32;3.40;;;;;2.10;99341.00;;;;4995541;28;20144;-58
2023/04/04 06:26:07;;;;;;;8.10;3.67;;;;;2.10;99342.00;;;;4995074;28;20580;-57
2023/04/04 06:28:34;;;;;;;5.03;3.47;;;;;2.10;99332.00;;;;4995087;28;20050;-58
2023/04/04 06:31:04;;;;;;;6.15;3.67;;;;;2.20;99341.00;;;;5012690;28;20601;-60
2023/04/04 06:33:31;;;;;;;6.13;3.90;;;;;2.20;99343.00;;;;4979325;28;20141;-58
2023/04/04 06:35:59;;;;;;;4.57;3.70;;;;;2.40;99346.00;;;;4995009;28;20120;-56
2023/04/04 06:38:28;;;;;;;7.22;3.35;;;;;2.50;99346.00;;;;4979550;28;20041;-60
2023/04/04 06:40:56;;;;;;;7.93;3.90;;;;;2.50;99348.00;;;;4995712;28;20084;-62
2023/04/04 06:43:24;;;;;;;4.95;3.10;;;;;2.60;99361.00;;;;4997207;28;20045;-61
2023/04/04 06:45:51;;;;;;;5.15;3.00;;;;;2.50;99360.00;;;;5013530;28;20045;-62
2023/04/04 06:48:18;;;;;;;4.97;2.85;;;;;2.40;99357.00;;;;5014363;28;20064;-62
2023/04/04 06:50:45;;;;;;;3.60;2.90;;;;;2.60;99367.00;;;;4996199;28;20425;-62
2023/04/04 06:53:14;;;;;;;3.97;3.05;;;;;2.60;99366.00;;;;5013186;28;20045;-62
2023/04/04 06:55:41;;;;;;;3.33;2.63;;;;;2.70;99357.00;;;;5014450;28;20096;-62
2023/04/04 06:58:07;;;;;;;7.05;3.15;;;;;2.70;99357.00;;;;4997147;28;20066;-62
2023/04/04 07:00:34;;;;;;;6.97;3.08;;;;;2.80;99362.00;;;;5014305;28;20396;-60
2023/04/04 07:03:01;;;;;;;2.85;2.47;;;;;2.90;99363.00;;;;4997173;28;20069;-61
2023/04/04 07:05:28;;;;;;;6.78;3.30;;;;;2.90;99372.00;;;;5015348;28;20084;-62
2023/04/04 07:07:55;;;;;;;4.65;2.55;;;;;3.00;99350.00;;;;4997713;28;20045;-62
2023/04/04 07:10:23;;;;;;;3.58;2.72;;;;;3.10;99355.00;;;;5014781;28;20049;-62
2023/04/04 07:12:50;;;;;;;4.55;2.40;;;;;3.30;99360.00;;;;4994979;28;20060;-60
2023/04/04 07:15:17;;;;;;;3.38;2.42;;;;;3.40;99360.00;;;;5012359;28;20042;-60
2023/04/04 07:17:43;;;;;;;10.60;2.70;;;;;3.40;99364.00;;;;5012112;28;20048;-59
2023/04/04 07:20:10;;;;;;;5.55;2.90;;;;;3.40;99358.00;;;;5011930;28;20077;-56
2023/04/04 07:22:38;;;;;;;3.10;2.22;;;;;3.50;99360.00;;;;5012690;28;20048;-60
2023/04/04 07:25:05;;;;;;;4.43;2.63;;;;;3.40;99366.00;;;;5011057;28;20050;-59
2023/04/04 07:27:32;;;;;;;5.18;2.05;;;;;3.40;99364.00;;;;5011498;28;20048;-56
2023/04/04 07:29:59;;;;;;;8.07;5.40;;;;;3.50;99365.00;;;;5011755;28;20507;-57
2023/04/04 07:32:25;;;;;;;5.38;2.45;;;;;3.60;99356.00;;;;5011679;28;20141;-57
2023/04/04 07:34:52;;;;;;;4.47;2.38;;;;;3.70;99364.00;;;;4994398;28;20042;-57
2023/04/04 07:37:18;;;;;;;5.18;2.78;;;;;3.80;99350.00;;;;5012199;28;20049;-56
2023/04/04 07:39:46;;;;;;;3.85;2.40;;;;;4.00;99368.00;;;;5012806;28;20076;-61
2023/04/04 07:42:13;;;;;;;6.20;2.38;;;;;4.10;99357.00;;;;5016072;28;20048;-57
2023/04/04 07:44:39;;;;;;;3.53;2.10;;;;;4.10;99360.00;;;;5015988;28;20491;-62
2023/04/04 07:47:07;;;;;;;4.13;2.90;;;;;4.10;99361.00;;;;5015951;28;20558;-58
2023/04/04 07:49:36;;;;;;;3.95;2.25;;;;;4.30;99357.00;;;;5014417;28;20498;-59
2023/04/04 07:52:03;;;;;;;3.05;2.50;;;;;4.30;99367.00;;;;5015926;28;20061;-58
2023/04/04 07:54:30;;;;;;;2.83;2.28;;;;;4.40;99360.00;;;;5015779;28;20046;-61
2023/04/04 07:56:56;;;;;;;4.72;3.05;;;;;4.50;99361.00;;;;5015741;28;20511;-57
2023/04/04 07:59:23;;;;;;;4.05;2.33;;;;;4.70;99363.00;;;;5015529;28;20049;-60
2023/04/04 08:01:50;;;;;;;3.97;2.90;;;;;4.70;99358.00;;;;5015503;28;20050;-57
2023/04/04 08:04:16;;;;;;;6.88;2.58;;;;;4.70;99356.00;;;;5015713;28;20049;-60
2023/04/04 08:06:43;;;;;;;4.82;2.97;;;;;4.70;99350.00;;;;5015561;28;20111;-58
2023/04/04 08:09:09;;;;;;;4.53;2.40;;;;;4.60;99350.00;;;;5015291;28;20049;-58
2023/04/04 08:11:36;;;;;;;4.80;2.60;;;;;4.70;99356.00;;;;5015856;28;20046;-56
2023/04/04 08:14:03;;;;;;;3.63;2.47;;;;;4.80;99367.00;;;;5014553;28;20076;-58
2023/04/04 08:16:30;;;;;;;6.47;2.72;;;;;4.90;99358.00;;;;5015337;28;20108;-56
2023/04/04 08:18:57;;;;;;;5.68;2.47;;;;;5.00;99354.00;;;;5017286;28;20506;-60
2023/04/04 08:21:26;;;;;;;5.43;2.17;;;;;5.00;99363.00;;;;5015386;28;20056;-60
2023/04/04 08:23:53;;;;;;;3.33;2.22;;;;;5.10;99366.00;;;;5015374;28;20124;-60
2023/04/04 08:26:20;;;;;;;6.10;2.70;;;;;5.30;99358.00;;;;5015322;28;20053;-60
2023/04/04 08:28:47;;;;;;;4.68;2.50;;;;;5.30;99358.00;;;;5015062;28;20046;-58
2023/04/04 08:31:14;;;;;;;7.20;2.50;;;;;5.40;99365.00;;;;5015096;28;20053;-57
2023/04/04 08:33:41;;;;;;;6.30;2.65;;;;;5.60;99364.00;;;;5015198;28;20042;-60
2023/04/04 08:36:13;;;;;;;3.03;2.47;;;;;5.60;99368.00;;;;5014838;28;20069;-61
2023/04/04 08:38:39;;;;;;;4.60;2.50;;;;;5.70;99364.00;;;;4996897;28;20041;-60
2023/04/04 08:41:06;;;;;;;3.40;2.42;;;;;5.80;99361.00;;;;5014680;28;20165;-61
2023/04/04 08:43:34;;;;;;;6.75;2.45;;;;;5.90;99364.00;;;;5014926;28;20564;-60
2023/04/04 08:46:04;;;;;;;3.97;2.50;;;;;6.00;99363.00;;;;5015086;28;20049;-59
2023/04/04 08:48:32;;;;;;;3.95;2.60;;;;;6.00;99360.00;;;;5014494;28;20499;-61
2023/04/04 08:50:59;;;;;;;5.10;3.08;;;;;6.10;99365.00;;;;5013828;28;20046;-61
2023/04/04 08:53:28;;;;;;;3.72;2.92;;;;;6.10;99368.00;;;;4996949;28;20054;-61
2023/04/04 08:55:58;;;;;;;4.55;2.20;;;;;6.10;99367.00;;;;5014729;28;20038;-61
2023/04/04 08:58:26;;;;;;;7.28;3.05;;;;;6.20;99368.00;;;;5014423;28;20046;-61
2023/04/04 09:00:53;;;;;;;5.97;2.45;;;;;6.20;99363.00;;;;5014450;28;20060;-60
2023/04/04 09:03:25;;;;;;;4.30;2.60;;;;;6.20;99380.00;;;;5014658;28;20046;-60
2023/04/04 09:05:55;;;;;;;5.40;2.28;;;;;6.20;99368.00;;;;5014180;28;20042;-61
2023/04/04 09:08:25;;;;;;;4.10;2.63;;;;;6.20;99378.00;;;;5014143;28;20124;-62
2023/04/04 09:10:52;;;;;;;4.38;2.58;;;;;6.20;99376.00;;;;5014256;28;20053;-60
2023/04/04 09:13:20;;;;;;;5.10;2.75;;;;;6.20;99377.00;;;;5014188;28;20507;-60
2023/04/04 09:15:52;;;;;;;3.90;2.00;;;;;6.30;99373.00;;;;5014048;28;20440;-61
2023/04/04 09:18:19;;;;;;;6.15;2.80;;;;;6.50;99382.00;;;;5013943;28;20084;-60
2023/04/04 09:20:47;;;;;;;4.38;2.92;;;;;6.40;99376.00;;;;5013913;28;20487;-60
2023/04/04 09:23:19;;;;;;;3.95;2.47;;;;;6.20;99374.00;;;;5013894;28;20084;-60
2023/04/04 09:25:51;;;;;;;4.57;2.72;;;;;6.20;99376.00;;;;5013950;28;20050;-59
2023/04/04 09:28:30;;;;;;;3.05;2.60;;;;;6.20;99368.00;;;;5014457;28;20041;-60
2023/04/04 09:30:59;;;;;;;5.50;2.65;;;;;6.20;99366.00;;;;5014047;28;20042;-60
2023/04/04 09:33:26;;;;;;;7.07;2.67;;;;;6.30;99367.00;;;;5014124;28;20041;-61
2023/04/04 09:35:58;;;;;;;4.78;2.85;;;;;6.40;99368.00;;;;5014131;28;20060;-60
2023/04/04 09:38:27;;;;;;;5.55;3.10;;;;;6.50;99386.00;;;;5015024;28;20053;-60
2023/04/04 09:40:54;;;;;;;5.32;2.80;;;;;6.40;99365.00;;;;5015730;28;20495;-61
2023/04/04 09:43:24;;;;;;;4.35;2.92;;;;;6.40;99364.00;;;;5021503;28;20046;-61
2023/04/04 09:45:53;;;;;;;20.42;11.85;;;;;6.50;99368.00;;;;5022495;28;20042;-62
2023/04/04 09:48:31;;;;;;;7.30;3.05;;;;;6.60;99374.00;;;;5021030;28;20049;-62
2023/04/04 09:50:58;;;;;;;3.90;2.90;;;;;6.50;99374.00;;;;5001255;28;20100;-61
2023/04/04 09:53:25;;;;;;;5.32;3.10;;;;;6.60;99369.00;;;;5018402;28;20483;-62
2023/04/04 09:55:54;;;;;;;3.88;2.85;;;;;6.70;99381.00;;;;5000059;28;20054;-62
2023/04/04 09:58:26;;;;;;;5.10;2.63;;;;;6.70;99369.00;;;;5019234;28;20046;-62
2023/04/04 10:00:59;;;;;;;4.03;2.97;;;;;6.80;99374.00;;;;5018895;28;20038;-62
2023/04/04 10:03:26;;;;;;;3.40;2.60;;;;;6.80;99371.00;;;;5000957;28;20373;-62
2023/04/04 10:06:04;;;;;;;5.63;2.95;;;;;6.90;99378.00;;;;5017598;28;20053;-62
2023/04/04 10:08:33;;;;;;;5.63;2.65;;;;;6.90;99359.00;;;;4998460;28;20058;-62
2023/04/04 10:11:02;;;;;;;3.60;2.45;;;;;6.90;99369.00;;;;4999219;28;20487;-61
2023/04/04 10:13:39;;;;;;;5.15;3.00;;;;;6.90;99370.00;;;;5017287;28;20241;-61
2023/04/04 10:16:07;;;;;;;4.47;2.78;;;;;7.00;99379.00;;;;5018607;28;20472;-62
2023/04/04 10:18:35;;;;;;;4.25;2.50;;;;;7.20;99373.00;;;;5018728;28;20521;-60
2023/04/04 10:21:04;;;;;;;5.82;2.83;;;;;7.30;99375.00;;;;5014075;28;20112;-58
2023/04/04 10:23:45;;;;;;;5.32;3.65;;;;;7.50;99375.00;;;;5014112;28;20108;-58
2023/04/04 10:26:12;;;;;;;5.68;3.17;;;;;7.40;99389.00;;;;5014459;28;20521;-58
2023/04/04 10:28:41;;;;;;;2.90;2.60;;;;;7.30;99381.00;;;;5013516;28;20412;-58
2023/04/04 10:31:23;;;;;;;3.15;2.42;;;;;7.40;99371.00;;;;5013911;28;20041;-57
2023/04/04 10:34:10;;;;;;;5.45;3.13;;;;;7.40;99366.00;;;;5015206;28;20563;-63
2023/04/04 10:36:51;;;;;;;6.13;2.85;;;;;7.40;99369.00;;;;4998534;28;20560;-62
2023/04/04 10:39:24;;;;;;;4.90;2.33;;;;;7.40;99371.00;;;;5014203;28;20136;-57
2023/04/04 10:41:52;;;;;;;3.17;2.42;;;;;7.30;99379.00;;;;5013783;28;20050;-59
2023/04/04 10:44:30;;;;;;;3.15;2.30;;;;;7.40;99386.00;;;;5013674;28;20046;-59
2023/04/04 10:47:02;;;;;;;2.78;2.30;;;;;7.30;99376.00;;;;5013637;28;20045;-58
2023/04/04 10:49:30;;;;;;;5.32;2.58;;;;;7.40;99370.00;;;;5013189;28;20124;-57
2023/04/04 10:51:57;;;;;;;7.13;4.03;;;;;7.30;99377.00;;;;5013574;28;20064;-57
2023/04/04 10:54:26;;;;;;;3.40;2.55;;;;;7.50;99367.00;;;;5012003;28;20503;-58
2023/04/04 10:56:55;;;;;;;4.25;2.47;;;;;7.60;99364.00;;;;5013460;28;20046;-58
2023/04/04 10:59:24;;;;;;;3.95;2.75;;;;;7.60;99361.00;;;;4995812;28;20046;-58
2023/04/04 11:02:09;;;;;;;3.10;2.80;;;;;7.50;99353.00;;;;4995459;28;20046;-58
2023/04/04 11:04:41;;;;;;;3.65;2.70;;;;;7.60;99359.00;;;;5013648;28;20050;-57
2023/04/04 11:07:15;;;;;;;5.82;2.58;;;;;7.60;99347.00;;;;5013484;28;20045;-57
2023/04/04 11:09:48;;;;;;;4.47;2.80;;;;;7.80;99345.00;;;;5014176;28;20057;-62
2023/04/04 11:12:20;;;;;;;5.18;2.50;;;;;8.10;99351.00;;;;5013835;28;20046;-59
2023/04/04 11:15:02;;;;;;;3.97;2.53;;;;;8.00;99342.00;;;;5014897;28;20050;-59
2023/04/04 11:17:47;;;;;;;5.30;2.42;;;;;7.90;99348.00;;;;5017076;28;20046;-58
2023/04/04 11:20:20;;;;;;;4.43;2.50;;;;;8.00;99344.00;;;;5015643;28;20062;-58
2023/04/04 11:23:13;;;;;;;4.00;2.78;;;;;8.00;99336.00;;;;5017064;28;20136;-59
2023/04/04 11:25:41;;;;;;;4.10;2.63;;;;;8.10;99344.00;;;;5016901;28;20049;-57
2023/04/04 11:28:13;;;;;;;5.95;2.50;;;;;8.10;99331.00;;;;5016590;28;20042;-58
2023/04/04 11:30:47;;;;;;;3.58;2.67;;;;;8.20;99340.00;;;;4998797;28;20037;-57
2023/04/04 11:33:27;;;;;;;;;;;;;8.40;99343.00;;;;4998758;28;20054;-58
2023/04/04 11:35:58;;;;;;;4.28;2.75;;;;;8.20;99338.00;;;;5016159;28;19925;-58
2023/04/04 11:38:28;;;;;;;3.70;2.53;;;;;8.10;99341.00;;;;5015928;28;20070;-61
2023/04/04 11:40:55;;;;;;;3.17;2.63;;;;;8.10;99331.00;;;;5015849;28;20038;-58
2023/04/04 11:43:23;;;;;;;4.38;2.83;;;;;8.40;99330.00;;;;5016006;28;20066;-57
2023/04/04 11:45:50;;;;;;;3.92;2.85;;;;;8.20;99329.00;;;;5015823;28;20096;-58
2023/04/04 11:48:18;;;;;;;5.05;2.70;;;;;8.30;99322.00;;;;4998102;28;20080;-57
2023/04/04 11:50:48;;;;;;;2.92;2.30;;;;;8.40;99326.00;;;;5018381;28;20503;-61
2023/04/04 11:53:16;;;;;;;4.28;2.50;;;;;8.30;99324.00;;;;4999580;28;20088;-59
2023/04/04 11:55:46;;;;;;;3.20;2.33;;;;;8.50;99328.00;;;;5016129;28;20058;-60
2023/04/04 11:58:15;;;;;;;7.28;2.85;;;;;8.50;99330.00;;;;5015697;28;20054;-57
2023/04/04 12:00:42;;;;;;;4.95;2.80;;;;;8.30;99333.00;;;;5022234;28;20553;-62
2023/04/04 12:03:11;;;;;;;7.97;4.55;;;;;8.40;99326.00;;;;5015408;28;20050;-62
2023/04/04 12:05:40;;;;;;;4.55;3.38;;;;;8.50;99326.00;;;;5015639;28;20491;-61
2023/04/04 12:08:09;;;;;;;3.85;2.30;;;;;8.70;99326.00;;;;5015479;28;20057;-62
2023/04/04 12:10:38;;;;;;;3.63;2.63;;;;;8.70;99316.00;;;;4997697;28;20049;-59
2023/04/04 12:13:07;;;;;;;6.47;2.78;;;;;8.80;99320.00;;;;5015636;28;20435;-58
2023/04/04 12:15:35;;;;;;;6.53;3.20;;;;;8.80;99315.00;;;;4998625;28;20050;-60
2023/04/04 12:18:06;;;;;;;5.85;2.55;;;;;8.80;99313.00;;;;5015660;28;20096;-61
2023/04/04 12:20:36;;;;;;;4.03;2.50;;;;;9.00;99310.00;;;;5000217;28;20080;-63
2023/04/04 12:23:03;;;;;;;4.22;2.58;;;;;9.00;99316.00;;;;5019357;28;20061;-61
2023/04/04 12:25:32;;;;;;;5.30;2.78;;;;;9.00;99314.00;;;;5015149;28;20046;-62
2023/04/04 12:28:02;;;;;;;3.78;2.60;;;;;9.00;99316.00;;;;4997704;28;20057;-62
2023/04/04 12:30:29;;;;;;;2.45;2.08;;;;;9.20;99316.00;;;;5014871;28;20411;-61
2023/04/04 12:32:56;;;;;;;4.55;2.70;;;;;9.30;99310.00;;;;5014065;28;20453;-60
2023/04/04 12:35:22;;;;;;;3.45;2.47;;;;;9.40;99318.00;;;;5015972;28;20633;-59
2023/04/04 12:37:57;;;;;;;4.18;2.90;;;;;9.20;99310.00;;;;4997710;28;20056;-61
2023/04/04 12:40:28;;;;;;;4.85;2.70;;;;;9.40;99306.00;;;;5014918;28;20096;-60